sensor_id;sensor_type;location;lat;lon;timestamp;temperature;humidity
62583;DHT22;48641;51.676;5.808;2023-11-21T00:00:16;15.10;68.90
62583;DHT22;48641;51.676;5.808;2023-11-21T00:02:43;15.10;68.80
62583;DHT22;48641;51.676;5.808;2023-11-21T00:05:13;15.10;68.90
62583;DHT22;48641;51.676;5.808;2023-11-21T00:07:42;15.10;68.80
62583;DHT22;48641;51.676;5.808;2023-11-21T00:10:09;15.10;68.90
62583;DHT22;48641;51.676;5.808;2023-11-21T00:12:35;15.10;68.80
62583;DHT22;48641;51.676;5.808;2023-11-21T00:15:01;15.10;68.90
62583;DHT22;48641;51.676;5.808;2023-11-21T00:17:27;15.10;68.80
62583;DHT22;48641;51.676;5.808;2023-11-21T00:19:53;15.10;68.80
62583;DHT22;48641;51.676;5.808;2023-11-21T00:22:19;15.10;68.80
62583;DHT22;48641;51.676;5.808;2023-11-21T00:24:45;15.10;68.80
62583;DHT22;48641;51.676;5.808;2023-11-21T00:27:11;15.10;68.80
62583;DHT22;48641;51.676;5.808;2023-11-21T00:29:37;15.10;68.80
62583;DHT22;48641;51.676;5.808;2023-11-21T00:32:04;15.10;68.80
62583;DHT22;48641;51.676;5.808;2023-11-21T00:34:31;15.10;68.90
62583;DHT22;48641;51.676;5.808;2023-11-21T00:36:56;15.10;68.80
62583;DHT22;48641;51.676;5.808;2023-11-21T00:39:22;15.10;68.80
62583;DHT22;48641;51.676;5.808;2023-11-21T00:41:47;15.10;68.80
62583;DHT22;48641;51.676;5.808;2023-11-21T00:44:13;15.10;68.90
62583;DHT22;48641;51.676;5.808;2023-11-21T00:46:39;15.10;68.80
62583;DHT22;48641;51.676;5.808;2023-11-21T00:49:05;15.10;68.80
62583;DHT22;48641;51.676;5.808;2023-11-21T00:51:30;15.10;68.80
62583;DHT22;48641;51.676;5.808;2023-11-21T00:53:56;15.10;68.80
62583;DHT22;48641;51.676;5.808;2023-11-21T00:56:22;15.10;68.80
62583;DHT22;48641;51.676;5.808;2023-11-21T00:58:47;15.10;68.80
62583;DHT22;48641;51.676;5.808;2023-11-21T01:01:20;15.10;68.80
62583;DHT22;48641;51.676;5.808;2023-11-21T01:03:48;15.00;68.80
62583;DHT22;48641;51.676;5.808;2023-11-21T01:06:14;15.10;68.80
62583;DHT22;48641;51.676;5.808;2023-11-21T01:08:40;15.00;68.80
62583;DHT22;48641;51.676;5.808;2023-11-21T01:11:05;15.00;68.80
62583;DHT22;48641;51.676;5.808;2023-11-21T01:13:33;15.00;68.70
62583;DHT22;48641;51.676;5.808;2023-11-21T01:15:59;15.00;68.70
62583;DHT22;48641;51.676;5.808;2023-11-21T01:18:24;15.00;68.70
62583;DHT22;48641;51.676;5.808;2023-11-21T01:20:54;15.00;68.70
62583;DHT22;48641;51.676;5.808;2023-11-21T01:23:20;15.00;68.70
62583;DHT22;48641;51.676;5.808;2023-11-21T01:25:45;15.10;68.80
62583;DHT22;48641;51.676;5.808;2023-11-21T01:28:11;15.00;68.70
62583;DHT22;48641;51.676;5.808;2023-11-21T01:30:37;15.00;68.70
62583;DHT22;48641;51.676;5.808;2023-11-21T01:33:02;15.00;68.80
62583;DHT22;48641;51.676;5.808;2023-11-21T01:35:28;15.00;68.70
62583;DHT22;48641;51.676;5.808;2023-11-21T01:37:54;15.00;68.70
62583;DHT22;48641;51.676;5.808;2023-11-21T01:40:19;15.00;68.70
62583;DHT22;48641;51.676;5.808;2023-11-21T01:42:46;15.00;68.70
62583;DHT22;48641;51.676;5.808;2023-11-21T01:45:13;15.00;68.70
62583;DHT22;48641;51.676;5.808;2023-11-21T01:47:39;15.00;68.70
62583;DHT22;48641;51.676;5.808;2023-11-21T01:50:07;15.00;68.70
62583;DHT22;48641;51.676;5.808;2023-11-21T01:52:35;15.00;68.70
62583;DHT22;48641;51.676;5.808;2023-11-21T01:55:01;15.00;68.70
62583;DHT22;48641;51.676;5.808;2023-11-21T01:57:26;15.00;68.70
62583;DHT22;48641;51.676;5.808;2023-11-21T01:59:54;15.00;68.60
62583;DHT22;48641;51.676;5.808;2023-11-21T02:02:20;15.00;68.70
62583;DHT22;48641;51.676;5.808;2023-11-21T02:04:45;15.00;68.60
62583;DHT22;48641;51.676;5.808;2023-11-21T02:07:11;15.00;68.60
62583;DHT22;48641;51.676;5.808;2023-11-21T02:09:37;15.00;68.60
62583;DHT22;48641;51.676;5.808;2023-11-21T02:12:04;15.00;68.60
62583;DHT22;48641;51.676;5.808;2023-11-21T02:14:30;15.00;68.70
62583;DHT22;48641;51.676;5.808;2023-11-21T02:16:57;15.00;68.60
62583;DHT22;48641;51.676;5.808;2023-11-21T02:19:24;15.00;68.60
62583;DHT22;48641;51.676;5.808;2023-11-21T02:21:54;15.00;68.70
62583;DHT22;48641;51.676;5.808;2023-11-21T02:24:23;15.00;68.70
62583;DHT22;48641;51.676;5.808;2023-11-21T02:26:49;15.00;68.70
62583;DHT22;48641;51.676;5.808;2023-11-21T02:29:17;15.00;68.60
62583;DHT22;48641;51.676;5.808;2023-11-21T02:31:44;14.90;68.70
62583;DHT22;48641;51.676;5.808;2023-11-21T02:34:17;15.00;68.70
62583;DHT22;48641;51.676;5.808;2023-11-21T02:36:44;14.90;68.60
62583;DHT22;48641;51.676;5.808;2023-11-21T02:39:12;15.00;68.70
62583;DHT22;48641;51.676;5.808;2023-11-21T02:41:38;14.90;68.60
62583;DHT22;48641;51.676;5.808;2023-11-21T02:44:05;14.90;68.60
62583;DHT22;48641;51.676;5.808;2023-11-21T02:46:35;14.90;68.60
62583;DHT22;48641;51.676;5.808;2023-11-21T02:49:01;15.00;68.70
62583;DHT22;48641;51.676;5.808;2023-11-21T02:51:26;14.90;68.60
62583;DHT22;48641;51.676;5.808;2023-11-21T02:53:52;14.90;68.90
62583;DHT22;48641;51.676;5.808;2023-11-21T02:56:17;14.90;68.90
62583;DHT22;48641;51.676;5.808;2023-11-21T02:58:44;14.90;69.00
62583;DHT22;48641;51.676;5.808;2023-11-21T03:01:10;14.90;68.90
62583;DHT22;48641;51.676;5.808;2023-11-21T03:03:37;14.90;68.90
62583;DHT22;48641;51.676;5.808;2023-11-21T03:06:04;14.90;68.90
62583;DHT22;48641;51.676;5.808;2023-11-21T03:08:30;14.90;68.80
62583;DHT22;48641;51.676;5.808;2023-11-21T03:10:55;14.90;68.80
62583;DHT22;48641;51.676;5.808;2023-11-21T03:13:21;14.90;68.80
62583;DHT22;48641;51.676;5.808;2023-11-21T03:15:47;14.90;68.80
62583;DHT22;48641;51.676;5.808;2023-11-21T03:18:12;14.90;68.70
62583;DHT22;48641;51.676;5.808;2023-11-21T03:20:38;14.90;68.70
62583;DHT22;48641;51.676;5.808;2023-11-21T03:23:04;14.90;68.80
62583;DHT22;48641;51.676;5.808;2023-11-21T03:25:30;14.90;68.70
62583;DHT22;48641;51.676;5.808;2023-11-21T03:27:56;14.90;68.70
62583;DHT22;48641;51.676;5.808;2023-11-21T03:30:22;14.90;68.70
62583;DHT22;48641;51.676;5.808;2023-11-21T03:32:47;14.90;68.60
62583;DHT22;48641;51.676;5.808;2023-11-21T03:35:13;14.90;68.60
62583;DHT22;48641;51.676;5.808;2023-11-21T03:37:39;14.90;68.60
62583;DHT22;48641;51.676;5.808;2023-11-21T03:40:07;14.90;68.60
62583;DHT22;48641;51.676;5.808;2023-11-21T03:42:34;14.90;68.70
62583;DHT22;48641;51.676;5.808;2023-11-21T03:45:00;14.90;68.70
62583;DHT22;48641;51.676;5.808;2023-11-21T03:47:27;14.90;68.60
62583;DHT22;48641;51.676;5.808;2023-11-21T03:49:53;14.90;68.60
62583;DHT22;48641;51.676;5.808;2023-11-21T03:52:18;14.90;68.70
62583;DHT22;48641;51.676;5.808;2023-11-21T03:54:44;14.90;68.60
62583;DHT22;48641;51.676;5.808;2023-11-21T03:57:10;14.90;68.60
62583;DHT22;48641;51.676;5.808;2023-11-21T03:59:36;14.90;68.70
62583;DHT22;48641;51.676;5.808;2023-11-21T04:02:04;14.90;68.60
62583;DHT22;48641;51.676;5.808;2023-11-21T04:04:30;14.90;68.60
62583;DHT22;48641;51.676;5.808;2023-11-21T04:06:56;14.90;68.70
62583;DHT22;48641;51.676;5.808;2023-11-21T04:09:21;14.90;68.60
62583;DHT22;48641;51.676;5.808;2023-11-21T04:11:51;14.90;68.60
62583;DHT22;48641;51.676;5.808;2023-11-21T04:14:16;14.90;68.60
62583;DHT22;48641;51.676;5.808;2023-11-21T04:16:42;14.90;68.60
62583;DHT22;48641;51.676;5.808;2023-11-21T04:19:08;14.90;68.60
62583;DHT22;48641;51.676;5.808;2023-11-21T04:21:38;14.80;68.60
62583;DHT22;48641;51.676;5.808;2023-11-21T04:24:04;14.90;68.60
62583;DHT22;48641;51.676;5.808;2023-11-21T04:26:30;14.90;68.60
62583;DHT22;48641;51.676;5.808;2023-11-21T04:28:56;14.90;68.60
62583;DHT22;48641;51.676;5.808;2023-11-21T04:31:21;14.90;68.60
62583;DHT22;48641;51.676;5.808;2023-11-21T04:33:47;14.90;68.60
62583;DHT22;48641;51.676;5.808;2023-11-21T04:36:12;14.90;68.60
62583;DHT22;48641;51.676;5.808;2023-11-21T04:38:38;14.80;68.50
62583;DHT22;48641;51.676;5.808;2023-11-21T04:41:04;14.80;68.50
62583;DHT22;48641;51.676;5.808;2023-11-21T04:43:30;14.90;68.60
62583;DHT22;48641;51.676;5.808;2023-11-21T04:45:55;14.80;68.60
62583;DHT22;48641;51.676;5.808;2023-11-21T04:48:21;14.80;68.50
62583;DHT22;48641;51.676;5.808;2023-11-21T04:50:46;14.80;68.60
62583;DHT22;48641;51.676;5.808;2023-11-21T04:53:12;14.80;68.50
62583;DHT22;48641;51.676;5.808;2023-11-21T04:55:43;14.80;68.50
62583;DHT22;48641;51.676;5.808;2023-11-21T04:58:09;14.80;68.50
62583;DHT22;48641;51.676;5.808;2023-11-21T05:00:35;14.80;68.60
62583;DHT22;48641;51.676;5.808;2023-11-21T05:03:02;14.80;68.50
62583;DHT22;48641;51.676;5.808;2023-11-21T05:05:28;14.80;68.50
62583;DHT22;48641;51.676;5.808;2023-11-21T05:07:55;14.80;68.50
62583;DHT22;48641;51.676;5.808;2023-11-21T05:10:21;14.80;68.50
62583;DHT22;48641;51.676;5.808;2023-11-21T05:12:48;14.80;68.60
62583;DHT22;48641;51.676;5.808;2023-11-21T05:15:16;14.80;68.50
62583;DHT22;48641;51.676;5.808;2023-11-21T05:17:43;14.80;68.50
62583;DHT22;48641;51.676;5.808;2023-11-21T05:20:10;14.80;68.50
62583;DHT22;48641;51.676;5.808;2023-11-21T05:22:37;14.80;68.50
62583;DHT22;48641;51.676;5.808;2023-11-21T05:25:03;14.80;68.50
62583;DHT22;48641;51.676;5.808;2023-11-21T05:27:30;14.80;68.50
62583;DHT22;48641;51.676;5.808;2023-11-21T05:29:58;14.80;68.50
62583;DHT22;48641;51.676;5.808;2023-11-21T05:32:25;14.80;68.50
62583;DHT22;48641;51.676;5.808;2023-11-21T05:34:51;14.80;68.50
62583;DHT22;48641;51.676;5.808;2023-11-21T05:37:17;14.80;68.50
62583;DHT22;48641;51.676;5.808;2023-11-21T05:39:43;14.80;68.50
62583;DHT22;48641;51.676;5.808;2023-11-21T05:42:08;14.80;68.50
62583;DHT22;48641;51.676;5.808;2023-11-21T05:44:36;14.80;68.50
62583;DHT22;48641;51.676;5.808;2023-11-21T05:47:02;14.80;68.60
62583;DHT22;48641;51.676;5.808;2023-11-21T05:49:29;14.80;68.60
62583;DHT22;48641;51.676;5.808;2023-11-21T05:51:55;14.80;68.50
62583;DHT22;48641;51.676;5.808;2023-11-21T05:54:21;14.80;68.50
62583;DHT22;48641;51.676;5.808;2023-11-21T05:56:46;14.80;68.50
62583;DHT22;48641;51.676;5.808;2023-11-21T05:59:12;14.80;68.50
62583;DHT22;48641;51.676;5.808;2023-11-21T06:01:38;14.80;68.50
62583;DHT22;48641;51.676;5.808;2023-11-21T06:04:05;14.80;68.50
62583;DHT22;48641;51.676;5.808;2023-11-21T06:06:30;14.80;68.50
62583;DHT22;48641;51.676;5.808;2023-11-21T06:08:57;14.80;68.50
62583;DHT22;48641;51.676;5.808;2023-11-21T06:11:22;14.80;68.50
62583;DHT22;48641;51.676;5.808;2023-11-21T06:13:50;14.80;68.50
62583;DHT22;48641;51.676;5.808;2023-11-21T06:16:15;14.80;68.50
62583;DHT22;48641;51.676;5.808;2023-11-21T06:18:44;14.70;68.50
62583;DHT22;48641;51.676;5.808;2023-11-21T06:21:10;14.80;68.50
62583;DHT22;48641;51.676;5.808;2023-11-21T06:23:36;14.80;68.50
62583;DHT22;48641;51.676;5.808;2023-11-21T06:26:01;14.80;68.70
62583;DHT22;48641;51.676;5.808;2023-11-21T06:28:27;14.80;68.70
62583;DHT22;48641;51.676;5.808;2023-11-21T06:30:53;14.80;68.70
62583;DHT22;48641;51.676;5.808;2023-11-21T06:33:18;14.80;68.70
62583;DHT22;48641;51.676;5.808;2023-11-21T06:35:44;14.80;68.70
62583;DHT22;48641;51.676;5.808;2023-11-21T06:38:10;14.80;68.60
62583;DHT22;48641;51.676;5.808;2023-11-21T06:40:36;14.80;68.60
62583;DHT22;48641;51.676;5.808;2023-11-21T06:43:01;14.80;68.60
62583;DHT22;48641;51.676;5.808;2023-11-21T06:45:28;14.80;68.60
62583;DHT22;48641;51.676;5.808;2023-11-21T06:47:53;14.80;68.60
62583;DHT22;48641;51.676;5.808;2023-11-21T06:50:19;14.80;68.60
62583;DHT22;48641;51.676;5.808;2023-11-21T06:52:45;14.70;68.60
62583;DHT22;48641;51.676;5.808;2023-11-21T06:55:11;14.80;68.60
62583;DHT22;48641;51.676;5.808;2023-11-21T06:57:37;14.80;68.60
62583;DHT22;48641;51.676;5.808;2023-11-21T07:00:04;14.80;68.60
62583;DHT22;48641;51.676;5.808;2023-11-21T07:02:30;14.80;69.00
62583;DHT22;48641;51.676;5.808;2023-11-21T07:04:55;14.70;68.80
62583;DHT22;48641;51.676;5.808;2023-11-21T07:07:21;14.80;68.90
62583;DHT22;48641;51.676;5.808;2023-11-21T07:09:47;14.80;68.90
62583;DHT22;48641;51.676;5.808;2023-11-21T07:12:13;14.80;68.90
62583;DHT22;48641;51.676;5.808;2023-11-21T07:14:39;14.80;68.90
62583;DHT22;48641;51.676;5.808;2023-11-21T07:17:06;14.70;68.80
62583;DHT22;48641;51.676;5.808;2023-11-21T07:19:33;14.80;68.80
62583;DHT22;48641;51.676;5.808;2023-11-21T07:21:59;14.80;68.80
62583;DHT22;48641;51.676;5.808;2023-11-21T07:24:25;14.80;68.70
62583;DHT22;48641;51.676;5.808;2023-11-21T07:26:51;14.80;68.80
62583;DHT22;48641;51.676;5.808;2023-11-21T07:29:23;14.70;68.70
62583;DHT22;48641;51.676;5.808;2023-11-21T07:31:48;14.70;68.70
62583;DHT22;48641;51.676;5.808;2023-11-21T07:34:15;14.70;68.60
62583;DHT22;48641;51.676;5.808;2023-11-21T07:36:40;14.80;68.70
62583;DHT22;48641;51.676;5.808;2023-11-21T07:39:06;14.70;68.60
62583;DHT22;48641;51.676;5.808;2023-11-21T07:41:32;14.70;68.60
62583;DHT22;48641;51.676;5.808;2023-11-21T07:43:57;14.70;68.70
62583;DHT22;48641;51.676;5.808;2023-11-21T07:46:23;14.70;68.60
62583;DHT22;48641;51.676;5.808;2023-11-21T07:48:49;14.70;69.00
62583;DHT22;48641;51.676;5.808;2023-11-21T07:51:15;14.80;69.10
62583;DHT22;48641;51.676;5.808;2023-11-21T07:53:41;14.70;69.00
62583;DHT22;48641;51.676;5.808;2023-11-21T07:56:08;14.80;69.00
62583;DHT22;48641;51.676;5.808;2023-11-21T07:58:35;14.80;69.00
62583;DHT22;48641;51.676;5.808;2023-11-21T08:01:01;14.80;68.90
62583;DHT22;48641;51.676;5.808;2023-11-21T08:03:27;14.70;68.80
62583;DHT22;48641;51.676;5.808;2023-11-21T08:05:53;14.80;68.90
62583;DHT22;48641;51.676;5.808;2023-11-21T08:08:19;14.80;68.90
62583;DHT22;48641;51.676;5.808;2023-11-21T08:10:45;14.80;69.10
62583;DHT22;48641;51.676;5.808;2023-11-21T08:13:24;14.80;69.50
62583;DHT22;48641;51.676;5.808;2023-11-21T08:15:50;14.80;69.20
62583;DHT22;48641;51.676;5.808;2023-11-21T08:18:16;14.80;69.00
62583;DHT22;48641;51.676;5.808;2023-11-21T08:20:43;14.70;69.20
62583;DHT22;48641;51.676;5.808;2023-11-21T08:23:09;14.60;69.30
62583;DHT22;48641;51.676;5.808;2023-11-21T08:25:34;14.70;69.20
62583;DHT22;48641;51.676;5.808;2023-11-21T08:28:00;14.70;69.20
62583;DHT22;48641;51.676;5.808;2023-11-21T08:30:27;14.70;69.10
62583;DHT22;48641;51.676;5.808;2023-11-21T08:32:55;14.70;69.10
62583;DHT22;48641;51.676;5.808;2023-11-21T08:35:24;14.70;69.00
62583;DHT22;48641;51.676;5.808;2023-11-21T08:37:51;14.70;69.10
62583;DHT22;48641;51.676;5.808;2023-11-21T08:40:18;14.70;69.00
62583;DHT22;48641;51.676;5.808;2023-11-21T08:42:44;14.70;69.00
62583;DHT22;48641;51.676;5.808;2023-11-21T08:45:11;14.70;69.00
62583;DHT22;48641;51.676;5.808;2023-11-21T08:47:38;14.70;69.00
62583;DHT22;48641;51.676;5.808;2023-11-21T08:50:05;14.70;69.00
62583;DHT22;48641;51.676;5.808;2023-11-21T08:52:33;14.70;69.00
62583;DHT22;48641;51.676;5.808;2023-11-21T08:54:59;14.70;68.90
62583;DHT22;48641;51.676;5.808;2023-11-21T08:57:28;14.70;68.90
62583;DHT22;48641;51.676;5.808;2023-11-21T08:59:53;14.70;68.80
62583;DHT22;48641;51.676;5.808;2023-11-21T09:02:25;14.60;69.10
62583;DHT22;48641;51.676;5.808;2023-11-21T09:04:51;14.60;69.10
62583;DHT22;48641;51.676;5.808;2023-11-21T09:07:18;14.70;69.10
62583;DHT22;48641;51.676;5.808;2023-11-21T09:09:46;14.60;69.10
62583;DHT22;48641;51.676;5.808;2023-11-21T09:12:12;14.70;69.00
62583;DHT22;48641;51.676;5.808;2023-11-21T09:14:38;14.60;68.90
62583;DHT22;48641;51.676;5.808;2023-11-21T09:17:04;14.70;69.00
62583;DHT22;48641;51.676;5.808;2023-11-21T09:19:36;14.70;69.00
62583;DHT22;48641;51.676;5.808;2023-11-21T09:22:02;14.70;68.90
62583;DHT22;48641;51.676;5.808;2023-11-21T09:24:27;14.70;68.90
62583;DHT22;48641;51.676;5.808;2023-11-21T09:26:53;14.70;68.90
62583;DHT22;48641;51.676;5.808;2023-11-21T09:29:19;14.70;68.90
62583;DHT22;48641;51.676;5.808;2023-11-21T09:31:44;14.70;69.10
62583;DHT22;48641;51.676;5.808;2023-11-21T09:34:10;14.70;69.20
62583;DHT22;48641;51.676;5.808;2023-11-21T09:36:36;14.70;69.20
62583;DHT22;48641;51.676;5.808;2023-11-21T09:39:04;14.70;69.10
62583;DHT22;48641;51.676;5.808;2023-11-21T09:41:43;14.70;69.10
62583;DHT22;48641;51.676;5.808;2023-11-21T09:44:13;14.70;69.10
62583;DHT22;48641;51.676;5.808;2023-11-21T09:46:42;14.70;69.20
62583;DHT22;48641;51.676;5.808;2023-11-21T09:49:09;14.70;69.10
62583;DHT22;48641;51.676;5.808;2023-11-21T09:51:39;14.70;69.10
62583;DHT22;48641;51.676;5.808;2023-11-21T09:54:08;14.70;69.10
62583;DHT22;48641;51.676;5.808;2023-11-21T09:56:35;14.70;69.10
62583;DHT22;48641;51.676;5.808;2023-11-21T09:59:01;14.70;69.00
62583;DHT22;48641;51.676;5.808;2023-11-21T10:01:32;14.70;69.10
62583;DHT22;48641;51.676;5.808;2023-11-21T10:03:58;14.70;69.20
62583;DHT22;48641;51.676;5.808;2023-11-21T10:06:25;14.70;69.00
62583;DHT22;48641;51.676;5.808;2023-11-21T10:08:53;14.70;69.00
62583;DHT22;48641;51.676;5.808;2023-11-21T10:11:24;14.70;69.00
62583;DHT22;48641;51.676;5.808;2023-11-21T10:13:53;14.70;69.10
62583;DHT22;48641;51.676;5.808;2023-11-21T10:16:19;14.80;69.20
62583;DHT22;48641;51.676;5.808;2023-11-21T10:18:48;14.80;69.20
62583;DHT22;48641;51.676;5.808;2023-11-21T10:21:15;14.80;69.40
62583;DHT22;48641;51.676;5.808;2023-11-21T10:23:42;14.80;69.30
62583;DHT22;48641;51.676;5.808;2023-11-21T10:26:12;14.90;69.40
62583;DHT22;48641;51.676;5.808;2023-11-21T10:28:55;14.90;69.20
62583;DHT22;48641;51.676;5.808;2023-11-21T10:31:22;15.00;69.20
62583;DHT22;48641;51.676;5.808;2023-11-21T10:33:50;15.10;69.10
62583;DHT22;48641;51.676;5.808;2023-11-21T10:36:27;15.20;69.10
62583;DHT22;48641;51.676;5.808;2023-11-21T10:38:54;15.20;69.00
62583;DHT22;48641;51.676;5.808;2023-11-21T10:41:20;15.20;68.80
62583;DHT22;48641;51.676;5.808;2023-11-21T10:43:46;15.30;68.70
62583;DHT22;48641;51.676;5.808;2023-11-21T10:46:13;15.30;68.60
62583;DHT22;48641;51.676;5.808;2023-11-21T10:48:43;15.30;68.60
62583;DHT22;48641;51.676;5.808;2023-11-21T10:51:09;15.40;68.50
62583;DHT22;48641;51.676;5.808;2023-11-21T10:53:39;15.40;68.50
62583;DHT22;48641;51.676;5.808;2023-11-21T10:56:06;15.40;68.80
62583;DHT22;48641;51.676;5.808;2023-11-21T10:58:35;15.50;69.30
62583;DHT22;48641;51.676;5.808;2023-11-21T11:01:02;15.40;68.80
62583;DHT22;48641;51.676;5.808;2023-11-21T11:03:31;15.50;68.80
62583;DHT22;48641;51.676;5.808;2023-11-21T11:05:59;15.50;68.70
62583;DHT22;48641;51.676;5.808;2023-11-21T11:08:26;15.50;68.60
62583;DHT22;48641;51.676;5.808;2023-11-21T11:10:53;15.50;68.60
62583;DHT22;48641;51.676;5.808;2023-11-21T11:13:18;15.50;68.50
62583;DHT22;48641;51.676;5.808;2023-11-21T11:15:47;15.40;68.40
62583;DHT22;48641;51.676;5.808;2023-11-21T11:18:15;15.40;68.30
62583;DHT22;48641;51.676;5.808;2023-11-21T11:20:42;15.40;68.30
62583;DHT22;48641;51.676;5.808;2023-11-21T11:37:34;15.30;68.50
62583;DHT22;48641;51.676;5.808;2023-11-21T11:40:00;15.20;68.50
62583;DHT22;48641;51.676;5.808;2023-11-21T11:42:26;15.30;68.60
62583;DHT22;48641;51.676;5.808;2023-11-21T11:44:52;15.20;68.50
62583;DHT22;48641;51.676;5.808;2023-11-21T11:47:33;15.20;68.50
62583;DHT22;48641;51.676;5.808;2023-11-21T11:50:10;15.20;68.50
62583;DHT22;48641;51.676;5.808;2023-11-21T11:52:55;15.20;68.50
62583;DHT22;48641;51.676;5.808;2023-11-21T11:55:24;15.20;68.50
62583;DHT22;48641;51.676;5.808;2023-11-21T11:57:51;15.20;68.60
62583;DHT22;48641;51.676;5.808;2023-11-21T12:00:21;15.10;68.70
62583;DHT22;48641;51.676;5.808;2023-11-21T12:03:00;15.20;68.70
62583;DHT22;48641;51.676;5.808;2023-11-21T12:05:30;15.10;68.60
62583;DHT22;48641;51.676;5.808;2023-11-21T12:08:00;15.10;68.70
62583;DHT22;48641;51.676;5.808;2023-11-21T12:10:30;15.10;68.70
62583;DHT22;48641;51.676;5.808;2023-11-21T12:13:06;15.10;68.70
62583;DHT22;48641;51.676;5.808;2023-11-21T12:15:35;15.10;68.70
62583;DHT22;48641;51.676;5.808;2023-11-21T12:18:02;15.10;68.80
62583;DHT22;48641;51.676;5.808;2023-11-21T12:20:29;15.10;68.70
62583;DHT22;48641;51.676;5.808;2023-11-21T12:22:57;15.10;68.80
62583;DHT22;48641;51.676;5.808;2023-11-21T12:25:26;15.10;68.80
62583;DHT22;48641;51.676;5.808;2023-11-21T12:27:55;15.10;68.70
62583;DHT22;48641;51.676;5.808;2023-11-21T12:30:23;15.10;68.80
62583;DHT22;48641;51.676;5.808;2023-11-21T12:32:53;15.10;68.80
62583;DHT22;48641;51.676;5.808;2023-11-21T12:35:20;15.10;68.80
62583;DHT22;48641;51.676;5.808;2023-11-21T12:37:47;15.00;68.70
62583;DHT22;48641;51.676;5.808;2023-11-21T12:40:14;15.00;68.70
62583;DHT22;48641;51.676;5.808;2023-11-21T12:42:44;15.00;68.80
62583;DHT22;48641;51.676;5.808;2023-11-21T12:45:19;15.00;68.80
62583;DHT22;48641;51.676;5.808;2023-11-21T12:47:50;15.00;68.80
62583;DHT22;48641;51.676;5.808;2023-11-21T12:50:23;15.00;68.80
62583;DHT22;48641;51.676;5.808;2023-11-21T12:52:52;15.00;68.80
62583;DHT22;48641;51.676;5.808;2023-11-21T12:55:20;15.00;68.80
62583;DHT22;48641;51.676;5.808;2023-11-21T12:57:55;15.00;68.80
62583;DHT22;48641;51.676;5.808;2023-11-21T13:00:28;15.00;68.80
62583;DHT22;48641;51.676;5.808;2023-11-21T13:02:58;15.00;68.80
62583;DHT22;48641;51.676;5.808;2023-11-21T13:05:28;15.00;68.80
62583;DHT22;48641;51.676;5.808;2023-11-21T13:07:58;15.00;68.80
62583;DHT22;48641;51.676;5.808;2023-11-21T13:10:26;15.00;68.80
62583;DHT22;48641;51.676;5.808;2023-11-21T13:12:55;15.00;68.80
62583;DHT22;48641;51.676;5.808;2023-11-21T13:15:27;15.00;68.80
62583;DHT22;48641;51.676;5.808;2023-11-21T13:17:54;15.00;68.80
62583;DHT22;48641;51.676;5.808;2023-11-21T13:20:20;15.00;68.90
62583;DHT22;48641;51.676;5.808;2023-11-21T13:22:49;15.00;68.90
62583;DHT22;48641;51.676;5.808;2023-11-21T13:25:18;15.00;68.90
62583;DHT22;48641;51.676;5.808;2023-11-21T13:27:45;14.90;68.90
62583;DHT22;48641;51.676;5.808;2023-11-21T13:30:14;14.90;69.00
62583;DHT22;48641;51.676;5.808;2023-11-21T13:32:48;14.90;69.20
62583;DHT22;48641;51.676;5.808;2023-11-21T13:35:20;14.90;69.30
62583;DHT22;48641;51.676;5.808;2023-11-21T13:37:56;14.90;69.30
62583;DHT22;48641;51.676;5.808;2023-11-21T13:40:25;14.90;69.30
62583;DHT22;48641;51.676;5.808;2023-11-21T13:42:55;14.90;69.30
62583;DHT22;48641;51.676;5.808;2023-11-21T13:45:27;14.90;69.20
62583;DHT22;48641;51.676;5.808;2023-11-21T13:47:54;14.90;69.20
62583;DHT22;48641;51.676;5.808;2023-11-21T13:50:26;14.90;69.20
62583;DHT22;48641;51.676;5.808;2023-11-21T13:52:59;14.90;69.20
62583;DHT22;48641;51.676;5.808;2023-11-21T13:55:31;14.90;69.20
62583;DHT22;48641;51.676;5.808;2023-11-21T13:57:56;14.90;69.20
62583;DHT22;48641;51.676;5.808;2023-11-21T14:00:22;14.90;70.10
62583;DHT22;48641;51.676;5.808;2023-11-21T14:03:06;14.90;69.20
62583;DHT22;48641;51.676;5.808;2023-11-21T14:05:41;14.90;69.20
62583;DHT22;48641;51.676;5.808;2023-11-21T14:08:10;14.90;69.20
62583;DHT22;48641;51.676;5.808;2023-11-21T14:10:37;14.90;69.20
62583;DHT22;48641;51.676;5.808;2023-11-21T14:13:09;14.90;69.20
62583;DHT22;48641;51.676;5.808;2023-11-21T14:15:36;14.90;69.20
62583;DHT22;48641;51.676;5.808;2023-11-21T14:18:10;14.90;69.20
62583;DHT22;48641;51.676;5.808;2023-11-21T14:20:39;14.90;69.20
62583;DHT22;48641;51.676;5.808;2023-11-21T14:23:06;14.90;69.20
62583;DHT22;48641;51.676;5.808;2023-11-21T14:25:35;14.90;69.20
62583;DHT22;48641;51.676;5.808;2023-11-21T14:28:07;14.90;69.20
62583;DHT22;48641;51.676;5.808;2023-11-21T14:30:33;14.90;69.20
62583;DHT22;48641;51.676;5.808;2023-11-21T14:33:02;14.90;69.20
62583;DHT22;48641;51.676;5.808;2023-11-21T14:35:27;14.90;69.20
62583;DHT22;48641;51.676;5.808;2023-11-21T14:37:55;14.90;69.10
62583;DHT22;48641;51.676;5.808;2023-11-21T14:40:21;14.90;69.10
62583;DHT22;48641;51.676;5.808;2023-11-21T14:42:50;14.90;69.20
62583;DHT22;48641;51.676;5.808;2023-11-21T14:45:19;14.90;69.20
62583;DHT22;48641;51.676;5.808;2023-11-21T14:47:46;14.90;69.20
62583;DHT22;48641;51.676;5.808;2023-11-21T14:50:21;14.90;69.20
62583;DHT22;48641;51.676;5.808;2023-11-21T14:53:11;14.90;69.20
62583;DHT22;48641;51.676;5.808;2023-11-21T14:55:39;14.90;69.20
62583;DHT22;48641;51.676;5.808;2023-11-21T14:58:18;14.90;69.20
62583;DHT22;48641;51.676;5.808;2023-11-21T15:00:58;14.90;69.30
62583;DHT22;48641;51.676;5.808;2023-11-21T15:03:25;14.90;69.30
62583;DHT22;48641;51.676;5.808;2023-11-21T15:06:01;14.90;69.30
62583;DHT22;48641;51.676;5.808;2023-11-21T15:08:44;14.90;69.20
62583;DHT22;48641;51.676;5.808;2023-11-21T15:11:10;14.90;69.30
62583;DHT22;48641;51.676;5.808;2023-11-21T15:13:40;14.90;69.30
62583;DHT22;48641;51.676;5.808;2023-11-21T15:16:07;14.90;69.40
62583;DHT22;48641;51.676;5.808;2023-11-21T15:18:34;14.90;69.20
62583;DHT22;48641;51.676;5.808;2023-11-21T15:21:01;14.90;69.20
62583;DHT22;48641;51.676;5.808;2023-11-21T15:23:29;14.90;69.30
62583;DHT22;48641;51.676;5.808;2023-11-21T15:25:56;14.90;69.20
62583;DHT22;48641;51.676;5.808;2023-11-21T15:28:23;14.90;69.30
62583;DHT22;48641;51.676;5.808;2023-11-21T15:30:50;14.90;69.20
62583;DHT22;48641;51.676;5.808;2023-11-21T15:33:16;14.90;69.30
62583;DHT22;48641;51.676;5.808;2023-11-21T15:35:42;14.90;69.20
62583;DHT22;48641;51.676;5.808;2023-11-21T15:38:08;14.90;69.20
62583;DHT22;48641;51.676;5.808;2023-11-21T15:40:34;14.90;69.20
62583;DHT22;48641;51.676;5.808;2023-11-21T15:43:00;14.90;69.20
62583;DHT22;48641;51.676;5.808;2023-11-21T15:45:28;14.90;69.20